sensor_id;sensor_type;location;lat;lon;timestamp;P1;durP1;ratioP1;P2;durP2;ratioP2
37411;SDS011;23278;52.110;6.050;2022-08-07T00:01:20;0.98;;;0.50;;
37411;SDS011;23278;52.110;6.050;2022-08-07T00:03:47;0.57;;;0.50;;
37411;SDS011;23278;52.110;6.050;2022-08-07T00:06:13;1.60;;;0.63;;
37411;SDS011;23278;52.110;6.050;2022-08-07T00:08:39;0.98;;;0.70;;
37411;SDS011;23278;52.110;6.050;2022-08-07T00:11:05;1.00;;;0.73;;
37411;SDS011;23278;52.110;6.050;2022-08-07T00:13:31;2.22;;;0.60;;
37411;SDS011;23278;52.110;6.050;2022-08-07T00:15:58;1.70;;;0.75;;
37411;SDS011;23278;52.110;6.050;2022-08-07T00:18:25;1.85;;;0.85;;
37411;SDS011;23278;52.110;6.050;2022-08-07T00:20:53;2.65;;;0.95;;
37411;SDS011;23278;52.110;6.050;2022-08-07T00:23:21;1.45;;;0.82;;
37411;SDS011;23278;52.110;6.050;2022-08-07T00:25:47;1.10;;;0.75;;
37411;SDS011;23278;52.110;6.050;2022-08-07T00:28:13;1.77;;;1.00;;
37411;SDS011;23278;52.110;6.050;2022-08-07T00:30:39;2.00;;;1.13;;
37411;SDS011;23278;52.110;6.050;2022-08-07T00:33:05;4.68;;;3.38;;
37411;SDS011;23278;52.110;6.050;2022-08-07T00:35:31;7.78;;;5.18;;
37411;SDS011;23278;52.110;6.050;2022-08-07T00:37:57;11.70;;;6.85;;
37411;SDS011;23278;52.110;6.050;2022-08-07T00:40:23;12.43;;;9.50;;
37411;SDS011;23278;52.110;6.050;2022-08-07T00:42:50;11.38;;;8.27;;
37411;SDS011;23278;52.110;6.050;2022-08-07T00:45:15;6.85;;;6.07;;
37411;SDS011;23278;52.110;6.050;2022-08-07T00:47:41;6.47;;;4.50;;
37411;SDS011;23278;52.110;6.050;2022-08-07T00:50:08;7.13;;;3.58;;
37411;SDS011;23278;52.110;6.050;2022-08-07T00:52:34;5.05;;;3.80;;
37411;SDS011;23278;52.110;6.050;2022-08-07T00:55:00;5.07;;;2.38;;
37411;SDS011;23278;52.110;6.050;2022-08-07T00:57:26;2.75;;;2.05;;
37411;SDS011;23278;52.110;6.050;2022-08-07T00:59:52;2.67;;;1.35;;
37411;SDS011;23278;52.110;6.050;2022-08-07T01:02:18;1.98;;;1.40;;
37411;SDS011;23278;52.110;6.050;2022-08-07T01:04:46;1.50;;;1.10;;
37411;SDS011;23278;52.110;6.050;2022-08-07T01:07:12;1.50;;;1.00;;
37411;SDS011;23278;52.110;6.050;2022-08-07T01:09:39;1.40;;;1.00;;
37411;SDS011;23278;52.110;6.050;2022-08-07T01:12:05;1.90;;;0.77;;
37411;SDS011;23278;52.110;6.050;2022-08-07T01:14:31;1.38;;;0.70;;
37411;SDS011;23278;52.110;6.050;2022-08-07T01:16:57;1.52;;;0.55;;
37411;SDS011;23278;52.110;6.050;2022-08-07T01:19:28;1.15;;;0.60;;
37411;SDS011;23278;52.110;6.050;2022-08-07T01:21:54;1.10;;;0.57;;
37411;SDS011;23278;52.110;6.050;2022-08-07T01:24:25;1.52;;;0.85;;
37411;SDS011;23278;52.110;6.050;2022-08-07T01:26:53;1.65;;;0.43;;
37411;SDS011;23278;52.110;6.050;2022-08-07T01:29:23;0.95;;;0.50;;
37411;SDS011;23278;52.110;6.050;2022-08-07T01:31:51;1.05;;;0.50;;
37411;SDS011;23278;52.110;6.050;2022-08-07T01:34:18;1.10;;;0.60;;
37411;SDS011;23278;52.110;6.050;2022-08-07T01:36:48;0.70;;;0.50;;
37411;SDS011;23278;52.110;6.050;2022-08-07T01:39:19;1.05;;;0.60;;
37411;SDS011;23278;52.110;6.050;2022-08-07T01:41:56;1.58;;;0.60;;
37411;SDS011;23278;52.110;6.050;2022-08-07T01:44:25;1.30;;;0.75;;
37411;SDS011;23278;52.110;6.050;2022-08-07T01:46:51;0.98;;;0.60;;
37411;SDS011;23278;52.110;6.050;2022-08-07T01:49:18;1.00;;;0.50;;
37411;SDS011;23278;52.110;6.050;2022-08-07T01:51:46;1.23;;;0.60;;
37411;SDS011;23278;52.110;6.050;2022-08-07T01:54:15;1.15;;;0.40;;
37411;SDS011;23278;52.110;6.050;2022-08-07T01:59:17;0.95;;;0.60;;
37411;SDS011;23278;52.110;6.050;2022-08-07T02:02:02;1.05;;;0.50;;
37411;SDS011;23278;52.110;6.050;2022-08-07T02:04:38;2.55;;;0.85;;
37411;SDS011;23278;52.110;6.050;2022-08-07T02:07:09;1.80;;;0.65;;
37411;SDS011;23278;52.110;6.050;2022-08-07T02:09:38;1.30;;;0.77;;
37411;SDS011;23278;52.110;6.050;2022-08-07T02:12:08;1.33;;;0.60;;
37411;SDS011;23278;52.110;6.050;2022-08-07T02:14:47;1.00;;;0.60;;
37411;SDS011;23278;52.110;6.050;2022-08-07T02:17:23;1.55;;;0.57;;
37411;SDS011;23278;52.110;6.050;2022-08-07T02:19:50;1.40;;;0.80;;
37411;SDS011;23278;52.110;6.050;2022-08-07T02:22:18;1.40;;;0.82;;
37411;SDS011;23278;52.110;6.050;2022-08-07T02:24:47;2.75;;;1.02;;
37411;SDS011;23278;52.110;6.050;2022-08-07T02:27:19;1.77;;;1.00;;
37411;SDS011;23278;52.110;6.050;2022-08-07T02:29:47;1.45;;;0.80;;
37411;SDS011;23278;52.110;6.050;2022-08-07T02:32:15;1.67;;;0.70;;
37411;SDS011;23278;52.110;6.050;2022-08-07T02:34:43;1.10;;;0.68;;
37411;SDS011;23278;52.110;6.050;2022-08-07T02:37:11;3.45;;;0.70;;
37411;SDS011;23278;52.110;6.050;2022-08-07T02:39:40;1.25;;;0.75;;
37411;SDS011;23278;52.110;6.050;2022-08-07T02:42:12;1.40;;;0.90;;
37411;SDS011;23278;52.110;6.050;2022-08-07T02:44:39;1.42;;;0.90;;
37411;SDS011;23278;52.110;6.050;2022-08-07T02:47:07;1.10;;;0.70;;
37411;SDS011;23278;52.110;6.050;2022-08-07T02:49:35;3.17;;;1.00;;
37411;SDS011;23278;52.110;6.050;2022-08-07T02:52:02;1.65;;;0.90;;
37411;SDS011;23278;52.110;6.050;2022-08-07T02:54:30;1.27;;;0.70;;
37411;SDS011;23278;52.110;6.050;2022-08-07T02:56:59;1.35;;;0.77;;
37411;SDS011;23278;52.110;6.050;2022-08-07T02:59:26;1.30;;;0.63;;
37411;SDS011;23278;52.110;6.050;2022-08-07T03:04:24;1.23;;;0.60;;
37411;SDS011;23278;52.110;6.050;2022-08-07T03:06:52;1.02;;;0.60;;
37411;SDS011;23278;52.110;6.050;2022-08-07T03:09:19;1.48;;;0.88;;
37411;SDS011;23278;52.110;6.050;2022-08-07T03:11:47;1.02;;;0.50;;
37411;SDS011;23278;52.110;6.050;2022-08-07T03:14:14;1.85;;;1.27;;
37411;SDS011;23278;52.110;6.050;2022-08-07T03:16:41;1.65;;;0.80;;
37411;SDS011;23278;52.110;6.050;2022-08-07T03:19:09;1.10;;;0.70;;
37411;SDS011;23278;52.110;6.050;2022-08-07T03:21:35;1.30;;;0.68;;
37411;SDS011;23278;52.110;6.050;2022-08-07T03:24:02;1.55;;;0.80;;
37411;SDS011;23278;52.110;6.050;2022-08-07T03:26:32;1.40;;;0.50;;
37411;SDS011;23278;52.110;6.050;2022-08-07T03:29:04;1.67;;;0.90;;
37411;SDS011;23278;52.110;6.050;2022-08-07T03:31:33;1.40;;;0.70;;
37411;SDS011;23278;52.110;6.050;2022-08-07T03:34:01;1.65;;;0.80;;
37411;SDS011;23278;52.110;6.050;2022-08-07T03:36:32;1.20;;;0.63;;
37411;SDS011;23278;52.110;6.050;2022-08-07T03:39:07;1.88;;;0.85;;
37411;SDS011;23278;52.110;6.050;2022-08-07T03:41:37;1.50;;;1.08;;
37411;SDS011;23278;52.110;6.050;2022-08-07T03:44:04;1.33;;;0.73;;
37411;SDS011;23278;52.110;6.050;2022-08-07T03:46:31;2.35;;;1.08;;
37411;SDS011;23278;52.110;6.050;2022-08-07T03:48:58;1.75;;;0.90;;
37411;SDS011;23278;52.110;6.050;2022-08-07T03:51:27;2.00;;;0.90;;
37411;SDS011;23278;52.110;6.050;2022-08-07T03:53:55;1.70;;;0.80;;
37411;SDS011;23278;52.110;6.050;2022-08-07T03:56:23;1.25;;;0.70;;
37411;SDS011;23278;52.110;6.050;2022-08-07T03:58:50;1.60;;;0.75;;
37411;SDS011;23278;52.110;6.050;2022-08-07T04:01:17;2.08;;;0.90;;
37411;SDS011;23278;52.110;6.050;2022-08-07T04:03:46;1.23;;;0.70;;
37411;SDS011;23278;52.110;6.050;2022-08-07T04:06:14;0.95;;;0.70;;
37411;SDS011;23278;52.110;6.050;2022-08-07T04:08:40;1.35;;;0.90;;
37411;SDS011;23278;52.110;6.050;2022-08-07T04:11:07;1.23;;;0.93;;
37411;SDS011;23278;52.110;6.050;2022-08-07T04:13:37;1.85;;;0.98;;
37411;SDS011;23278;52.110;6.050;2022-08-07T04:16:04;1.55;;;1.10;;
37411;SDS011;23278;52.110;6.050;2022-08-07T04:18:32;1.20;;;0.70;;
37411;SDS011;23278;52.110;6.050;2022-08-07T04:20:58;1.60;;;0.88;;
37411;SDS011;23278;52.110;6.050;2022-08-07T04:23:24;1.80;;;0.90;;
37411;SDS011;23278;52.110;6.050;2022-08-07T04:25:51;1.33;;;0.85;;
37411;SDS011;23278;52.110;6.050;2022-08-07T04:28:18;1.92;;;1.00;;
37411;SDS011;23278;52.110;6.050;2022-08-07T04:30:48;1.58;;;0.80;;
37411;SDS011;23278;52.110;6.050;2022-08-07T04:33:19;2.33;;;1.23;;
37411;SDS011;23278;52.110;6.050;2022-08-07T04:35:47;1.77;;;1.00;;
37411;SDS011;23278;52.110;6.050;2022-08-07T04:38:16;1.58;;;1.02;;
37411;SDS011;23278;52.110;6.050;2022-08-07T04:40:45;2.45;;;1.50;;
37411;SDS011;23278;52.110;6.050;2022-08-07T04:43:16;1.88;;;0.90;;
37411;SDS011;23278;52.110;6.050;2022-08-07T04:51:27;2.17;;;1.38;;
37411;SDS011;23278;52.110;6.050;2022-08-07T04:56:45;2.00;;;1.02;;
37411;SDS011;23278;52.110;6.050;2022-08-07T05:02:00;1.52;;;0.90;;
37411;SDS011;23278;52.110;6.050;2022-08-07T05:04:38;1.65;;;0.93;;
37411;SDS011;23278;52.110;6.050;2022-08-07T05:07:19;1.92;;;1.10;;
37411;SDS011;23278;52.110;6.050;2022-08-07T05:12:38;1.55;;;1.13;;
37411;SDS011;23278;52.110;6.050;2022-08-07T05:15:09;1.85;;;1.00;;
37411;SDS011;23278;52.110;6.050;2022-08-07T05:17:46;2.85;;;0.98;;
37411;SDS011;23278;52.110;6.050;2022-08-07T05:20:17;2.08;;;0.80;;
37411;SDS011;23278;52.110;6.050;2022-08-07T05:22:50;2.03;;;1.30;;
37411;SDS011;23278;52.110;6.050;2022-08-07T05:25:21;2.75;;;1.20;;
37411;SDS011;23278;52.110;6.050;2022-08-07T05:27:48;1.65;;;1.08;;
37411;SDS011;23278;52.110;6.050;2022-08-07T05:30:16;2.53;;;1.48;;
37411;SDS011;23278;52.110;6.050;2022-08-07T05:32:43;1.42;;;0.93;;
37411;SDS011;23278;52.110;6.050;2022-08-07T05:35:12;2.08;;;1.33;;
37411;SDS011;23278;52.110;6.050;2022-08-07T05:37:39;2.85;;;1.20;;
37411;SDS011;23278;52.110;6.050;2022-08-07T05:40:06;2.42;;;1.73;;
37411;SDS011;23278;52.110;6.050;2022-08-07T05:42:34;2.33;;;1.83;;
37411;SDS011;23278;52.110;6.050;2022-08-07T05:45:06;4.32;;;2.38;;
37411;SDS011;23278;52.110;6.050;2022-08-07T05:47:33;2.85;;;1.58;;
37411;SDS011;23278;52.110;6.050;2022-08-07T05:49:59;3.33;;;2.00;;
37411;SDS011;23278;52.110;6.050;2022-08-07T05:52:28;2.80;;;1.60;;
37411;SDS011;23278;52.110;6.050;2022-08-07T05:54:54;2.92;;;1.50;;
37411;SDS011;23278;52.110;6.050;2022-08-07T05:57:20;2.55;;;1.60;;
37411;SDS011;23278;52.110;6.050;2022-08-07T05:59:48;2.22;;;1.45;;
37411;SDS011;23278;52.110;6.050;2022-08-07T06:02:16;2.10;;;1.48;;
37411;SDS011;23278;52.110;6.050;2022-08-07T06:04:44;4.03;;;2.15;;
37411;SDS011;23278;52.110;6.050;2022-08-07T06:07:15;4.30;;;2.20;;
37411;SDS011;23278;52.110;6.050;2022-08-07T06:09:43;2.97;;;1.52;;
37411;SDS011;23278;52.110;6.050;2022-08-07T06:12:10;2.97;;;2.10;;
37411;SDS011;23278;52.110;6.050;2022-08-07T06:14:36;2.97;;;1.95;;
37411;SDS011;23278;52.110;6.050;2022-08-07T06:17:02;3.83;;;2.03;;
37411;SDS011;23278;52.110;6.050;2022-08-07T06:19:33;2.70;;;2.17;;
37411;SDS011;23278;52.110;6.050;2022-08-07T06:21:59;3.10;;;2.05;;
37411;SDS011;23278;52.110;6.050;2022-08-07T06:24:28;4.15;;;3.22;;
37411;SDS011;23278;52.110;6.050;2022-08-07T06:26:54;3.50;;;2.47;;
37411;SDS011;23278;52.110;6.050;2022-08-07T06:29:25;3.05;;;2.22;;
37411;SDS011;23278;52.110;6.050;2022-08-07T06:31:54;3.65;;;3.13;;
37411;SDS011;23278;52.110;6.050;2022-08-07T06:34:27;4.18;;;2.95;;
37411;SDS011;23278;52.110;6.050;2022-08-07T06:36:53;4.85;;;3.20;;
37411;SDS011;23278;52.110;6.050;2022-08-07T06:39:29;3.88;;;3.10;;
37411;SDS011;23278;52.110;6.050;2022-08-07T06:42:01;5.57;;;3.55;;
37411;SDS011;23278;52.110;6.050;2022-08-07T06:44:58;4.20;;;3.60;;
37411;SDS011;23278;52.110;6.050;2022-08-07T06:47:25;3.75;;;2.88;;
37411;SDS011;23278;52.110;6.050;2022-08-07T06:49:51;6.05;;;3.05;;
37411;SDS011;23278;52.110;6.050;2022-08-07T06:52:18;4.55;;;3.28;;
37411;SDS011;23278;52.110;6.050;2022-08-07T06:54:45;5.57;;;3.28;;
37411;SDS011;23278;52.110;6.050;2022-08-07T06:57:14;4.57;;;2.72;;
37411;SDS011;23278;52.110;6.050;2022-08-07T06:59:42;4.53;;;3.50;;
37411;SDS011;23278;52.110;6.050;2022-08-07T07:02:17;5.20;;;3.17;;
37411;SDS011;23278;52.110;6.050;2022-08-07T07:04:44;3.88;;;3.08;;
37411;SDS011;23278;52.110;6.050;2022-08-07T07:07:12;4.45;;;3.25;;
37411;SDS011;23278;52.110;6.050;2022-08-07T07:09:43;4.35;;;3.10;;
37411;SDS011;23278;52.110;6.050;2022-08-07T07:12:25;4.53;;;3.42;;
37411;SDS011;23278;52.110;6.050;2022-08-07T07:15:15;4.72;;;2.65;;
37411;SDS011;23278;52.110;6.050;2022-08-07T07:21:04;5.35;;;3.55;;
37411;SDS011;23278;52.110;6.050;2022-08-07T07:23:34;4.32;;;3.65;;
37411;SDS011;23278;52.110;6.050;2022-08-07T07:26:01;4.20;;;3.35;;
37411;SDS011;23278;52.110;6.050;2022-08-07T07:31:27;4.90;;;4.30;;
37411;SDS011;23278;52.110;6.050;2022-08-07T07:33:58;4.10;;;3.08;;
37411;SDS011;23278;52.110;6.050;2022-08-07T07:36:30;3.95;;;3.25;;
37411;SDS011;23278;52.110;6.050;2022-08-07T07:38:59;4.95;;;3.30;;
37411;SDS011;23278;52.110;6.050;2022-08-07T07:41:27;4.20;;;3.63;;
37411;SDS011;23278;52.110;6.050;2022-08-07T07:43:56;4.43;;;3.28;;
37411;SDS011;23278;52.110;6.050;2022-08-07T07:46:24;3.95;;;2.90;;
37411;SDS011;23278;52.110;6.050;2022-08-07T07:48:52;7.93;;;5.50;;
37411;SDS011;23278;52.110;6.050;2022-08-07T07:51:20;7.80;;;5.45;;
37411;SDS011;23278;52.110;6.050;2022-08-07T07:53:47;5.25;;;4.32;;
37411;SDS011;23278;52.110;6.050;2022-08-07T07:56:14;10.13;;;2.92;;
37411;SDS011;23278;52.110;6.050;2022-08-07T07:58:41;5.53;;;2.80;;
37411;SDS011;23278;52.110;6.050;2022-08-07T08:01:09;4.72;;;3.08;;
37411;SDS011;23278;52.110;6.050;2022-08-07T08:03:36;4.07;;;3.42;;
37411;SDS011;23278;52.110;6.050;2022-08-07T08:06:05;3.47;;;3.00;;
37411;SDS011;23278;52.110;6.050;2022-08-07T08:08:32;4.78;;;3.67;;
37411;SDS011;23278;52.110;6.050;2022-08-07T08:10:59;5.00;;;3.92;;
37411;SDS011;23278;52.110;6.050;2022-08-07T08:13:27;5.90;;;3.47;;
37411;SDS011;23278;52.110;6.050;2022-08-07T08:15:54;4.03;;;3.20;;
37411;SDS011;23278;52.110;6.050;2022-08-07T08:18:23;3.00;;;2.17;;
37411;SDS011;23278;52.110;6.050;2022-08-07T08:20:51;5.10;;;2.72;;
37411;SDS011;23278;52.110;6.050;2022-08-07T08:23:18;3.85;;;2.22;;
37411;SDS011;23278;52.110;6.050;2022-08-07T08:26:04;4.53;;;2.85;;
37411;SDS011;23278;52.110;6.050;2022-08-07T08:28:51;3.28;;;2.35;;
37411;SDS011;23278;52.110;6.050;2022-08-07T08:31:20;3.30;;;2.55;;
37411;SDS011;23278;52.110;6.050;2022-08-07T08:33:50;3.88;;;3.05;;
37411;SDS011;23278;52.110;6.050;2022-08-07T08:36:19;4.82;;;2.83;;
37411;SDS011;23278;52.110;6.050;2022-08-07T08:38:48;3.38;;;2.80;;
37411;SDS011;23278;52.110;6.050;2022-08-07T08:41:36;3.33;;;2.17;;
37411;SDS011;23278;52.110;6.050;2022-08-07T08:49:45;2.63;;;1.73;;
37411;SDS011;23278;52.110;6.050;2022-08-07T08:52:28;3.05;;;2.13;;
37411;SDS011;23278;52.110;6.050;2022-08-07T08:55:06;2.38;;;1.45;;
37411;SDS011;23278;52.110;6.050;2022-08-07T09:00:39;2.63;;;1.42;;
37411;SDS011;23278;52.110;6.050;2022-08-07T09:03:18;3.50;;;1.50;;
37411;SDS011;23278;52.110;6.050;2022-08-07T09:05:57;3.38;;;1.50;;
37411;SDS011;23278;52.110;6.050;2022-08-07T09:08:51;2.25;;;1.30;;
37411;SDS011;23278;52.110;6.050;2022-08-07T09:11:42;2.45;;;1.48;;
37411;SDS011;23278;52.110;6.050;2022-08-07T09:14:29;2.05;;;1.02;;
37411;SDS011;23278;52.110;6.050;2022-08-07T09:17:06;2.50;;;1.05;;
37411;SDS011;23278;52.110;6.050;2022-08-07T09:20:00;2.42;;;1.60;;
37411;SDS011;23278;52.110;6.050;2022-08-07T09:30:10;1.10;;;0.70;;
37411;SDS011;23278;52.110;6.050;2022-08-07T09:35:43;4.68;;;1.33;;
37411;SDS011;23278;52.110;6.050;2022-08-07T09:40:56;1.58;;;0.85;;
37411;SDS011;23278;52.110;6.050;2022-08-07T09:54:46;4.63;;;1.00;;
37411;SDS011;23278;52.110;6.050;2022-08-07T10:00:26;1.58;;;0.80;;
37411;SDS011;23278;52.110;6.050;2022-08-07T10:22:37;1.70;;;1.10;;
37411;SDS011;23278;52.110;6.050;2022-08-07T10:25:37;1.40;;;0.88;;
37411;SDS011;23278;52.110;6.050;2022-08-07T10:33:56;1.45;;;0.90;;
37411;SDS011;23278;52.110;6.050;2022-08-07T10:42:15;2.08;;;1.15;;
37411;SDS011;23278;52.110;6.050;2022-08-07T10:44:51;1.10;;;0.80;;
37411;SDS011;23278;52.110;6.050;2022-08-07T10:47:30;2.60;;;1.00;;
37411;SDS011;23278;52.110;6.050;2022-08-07T10:53:27;1.27;;;0.80;;
37411;SDS011;23278;52.110;6.050;2022-08-07T11:04:32;1.35;;;0.80;;
37411;SDS011;23278;52.110;6.050;2022-08-07T11:09:53;1.38;;;0.85;;
37411;SDS011;23278;52.110;6.050;2022-08-07T11:12:26;1.35;;;0.80;;
37411;SDS011;23278;52.110;6.050;2022-08-07T11:15:02;1.25;;;0.70;;
37411;SDS011;23278;52.110;6.050;2022-08-07T11:17:40;1.92;;;1.10;;
37411;SDS011;23278;52.110;6.050;2022-08-07T11:20:20;1.35;;;0.85;;
37411;SDS011;23278;52.110;6.050;2022-08-07T11:28:09;1.73;;;0.80;;
37411;SDS011;23278;52.110;6.050;2022-08-07T11:31:01;1.50;;;0.90;;
37411;SDS011;23278;52.110;6.050;2022-08-07T11:33:45;1.40;;;0.70;;
37411;SDS011;23278;52.110;6.050;2022-08-07T11:36:29;2.47;;;0.90;;
37411;SDS011;23278;52.110;6.050;2022-08-07T11:41:41;1.00;;;0.60;;
37411;SDS011;23278;52.110;6.050;2022-08-07T11:49:55;1.05;;;0.60;;
37411;SDS011;23278;52.110;6.050;2022-08-07T11:52:31;1.08;;;0.70;;
37411;SDS011;23278;52.110;6.050;2022-08-07T12:08:47;1.08;;;0.75;;
37411;SDS011;23278;52.110;6.050;2022-08-07T12:11:30;1.80;;;0.75;;
37411;SDS011;23278;52.110;6.050;2022-08-07T12:14:06;0.80;;;0.68;;
37411;SDS011;23278;52.110;6.050;2022-08-07T12:16:53;6.53;;;0.82;;
37411;SDS011;23278;52.110;6.050;2022-08-07T12:19:53;1.15;;;0.90;;
37411;SDS011;23278;52.110;6.050;2022-08-07T12:22:30;1.23;;;0.77;;
37411;SDS011;23278;52.110;6.050;2022-08-07T12:34:03;1.42;;;0.80;;
37411;SDS011;23278;52.110;6.050;2022-08-07T12:36:30;1.20;;;0.75;;
37411;SDS011;23278;52.110;6.050;2022-08-07T12:38:57;1.20;;;0.50;;
37411;SDS011;23278;52.110;6.050;2022-08-07T12:41:25;1.40;;;0.60;;
37411;SDS011;23278;52.110;6.050;2022-08-07T12:43:56;0.83;;;0.60;;
37411;SDS011;23278;52.110;6.050;2022-08-07T12:51:53;1.20;;;0.68;;
37411;SDS011;23278;52.110;6.050;2022-08-07T12:54:30;1.35;;;0.80;;
37411;SDS011;23278;52.110;6.050;2022-08-07T12:57:05;1.90;;;0.70;;
37411;SDS011;23278;52.110;6.050;2022-08-07T12:59:34;1.48;;;0.60;;
37411;SDS011;23278;52.110;6.050;2022-08-07T13:05:08;1.30;;;0.70;;
37411;SDS011;23278;52.110;6.050;2022-08-07T13:22:09;0.88;;;0.60;;
37411;SDS011;23278;52.110;6.050;2022-08-07T13:24:47;1.45;;;0.70;;
37411;SDS011;23278;52.110;6.050;2022-08-07T13:27:23;2.58;;;0.70;;
37411;SDS011;23278;52.110;6.050;2022-08-07T13:30:08;1.05;;;0.70;;
37411;SDS011;23278;52.110;6.050;2022-08-07T13:40:28;1.00;;;0.68;;
37411;SDS011;23278;52.110;6.050;2022-08-07T13:43:03;1.95;;;0.50;;
37411;SDS011;23278;52.110;6.050;2022-08-07T13:45:31;0.60;;;0.45;;
37411;SDS011;23278;52.110;6.050;2022-08-07T13:48:00;0.80;;;0.60;;
37411;SDS011;23278;52.110;6.050;2022-08-07T13:50:29;2.75;;;0.60;;
37411;SDS011;23278;52.110;6.050;2022-08-07T13:52:57;1.65;;;0.60;;
37411;SDS011;23278;52.110;6.050;2022-08-07T13:55:24;2.72;;;0.70;;
37411;SDS011;23278;52.110;6.050;2022-08-07T13:57:52;2.88;;;0.95;;
37411;SDS011;23278;52.110;6.050;2022-08-07T14:00:48;0.80;;;0.50;;
37411;SDS011;23278;52.110;6.050;2022-08-07T14:03:16;1.38;;;0.50;;
37411;SDS011;23278;52.110;6.050;2022-08-07T14:05:45;6.63;;;0.82;;
37411;SDS011;23278;52.110;6.050;2022-08-07T14:08:15;0.95;;;0.60;;
37411;SDS011;23278;52.110;6.050;2022-08-07T14:10:42;0.77;;;0.50;;
37411;SDS011;23278;52.110;6.050;2022-08-07T14:13:13;1.30;;;0.60;;
37411;SDS011;23278;52.110;6.050;2022-08-07T14:15:43;1.23;;;0.50;;
37411;SDS011;23278;52.110;6.050;2022-08-07T14:18:20;3.05;;;0.60;;
37411;SDS011;23278;52.110;6.050;2022-08-07T14:20:52;0.95;;;0.60;;
37411;SDS011;23278;52.110;6.050;2022-08-07T14:23:27;1.25;;;0.63;;
37411;SDS011;23278;52.110;6.050;2022-08-07T14:25:57;0.85;;;0.60;;
37411;SDS011;23278;52.110;6.050;2022-08-07T14:28:26;1.23;;;0.57;;
37411;SDS011;23278;52.110;6.050;2022-08-07T14:30:54;0.60;;;0.60;;
37411;SDS011;23278;52.110;6.050;2022-08-07T14:33:21;1.25;;;0.50;;
37411;SDS011;23278;52.110;6.050;2022-08-07T14:35:53;1.20;;;0.70;;
37411;SDS011;23278;52.110;6.050;2022-08-07T14:38:26;1.00;;;0.57;;
37411;SDS011;23278;52.110;6.050;2022-08-07T14:40:58;2.85;;;0.70;;
37411;SDS011;23278;52.110;6.050;2022-08-07T14:43:29;1.48;;;0.63;;
37411;SDS011;23278;52.110;6.050;2022-08-07T14:45:58;0.98;;;0.40;;
37411;SDS011;23278;52.110;6.050;2022-08-07T14:48:29;0.60;;;0.50;;
37411;SDS011;23278;52.110;6.050;2022-08-07T14:50:57;1.08;;;0.50;;
37411;SDS011;23278;52.110;6.050;2022-08-07T14:53:26;0.55;;;0.55;;
37411;SDS011;23278;52.110;6.050;2022-08-07T14:56:04;1.38;;;0.60;;
37411;SDS011;23278;52.110;6.050;2022-08-07T14:58:34;0.60;;;0.40;;
37411;SDS011;23278;52.110;6.050;2022-08-07T15:01:03;2.05;;;0.77;;
37411;SDS011;23278;52.110;6.050;2022-08-07T15:03:31;1.45;;;0.65;;
37411;SDS011;23278;52.110;6.050;2022-08-07T15:05:58;1.15;;;0.45;;
37411;SDS011;23278;52.110;6.050;2022-08-07T15:08:31;4.10;;;0.80;;
37411;SDS011;23278;52.110;6.050;2022-08-07T15:11:04;1.17;;;0.68;;
37411;SDS011;23278;52.110;6.050;2022-08-07T15:13:34;1.83;;;0.65;;
37411;SDS011;23278;52.110;6.050;2022-08-07T15:16:06;1.17;;;0.63;;
37411;SDS011;23278;52.110;6.050;2022-08-07T15:18:36;1.02;;;0.57;;
37411;SDS011;23278;52.110;6.050;2022-08-07T15:21:18;0.80;;;0.52;;
37411;SDS011;23278;52.110;6.050;2022-08-07T15:23:52;1.75;;;0.82;;
37411;SDS011;23278;52.110;6.050;2022-08-07T15:26:24;2.40;;;1.48;;
37411;SDS011;23278;52.110;6.050;2022-08-07T15:29:08;1.35;;;0.80;;
37411;SDS011;23278;52.110;6.050;2022-08-07T15:31:37;0.90;;;0.52;;
37411;SDS011;23278;52.110;6.050;2022-08-07T15:34:05;1.08;;;0.50;;
37411;SDS011;23278;52.110;6.050;2022-08-07T15:36:33;1.38;;;0.60;;
37411;SDS011;23278;52.110;6.050;2022-08-07T15:39:04;1.48;;;0.60;;
37411;SDS011;23278;52.110;6.050;2022-08-07T15:41:37;1.15;;;0.80;;
37411;SDS011;23278;52.110;6.050;2022-08-07T15:44:21;1.73;;;0.60;;
37411;SDS011;23278;52.110;6.050;2022-08-07T15:46:55;1.43;;;0.53;;
37411;SDS011;23278;52.110;6.050;2022-08-07T15:49:27;1.10;;;0.50;;
37411;SDS011;23278;52.110;6.050;2022-08-07T15:51:54;2.03;;;0.50;;
37411;SDS011;23278;52.110;6.050;2022-08-07T15:54:22;0.50;;;0.40;;
37411;SDS011;23278;52.110;6.050;2022-08-07T15:56:50;1.45;;;0.55;;
37411;SDS011;23278;52.110;6.050;2022-08-07T15:59:21;1.27;;;0.52;;
37411;SDS011;23278;52.110;6.050;2022-08-07T16:01:51;0.70;;;0.40;;
37411;SDS011;23278;52.110;6.050;2022-08-07T16:04:18;1.60;;;0.50;;
37411;SDS011;23278;52.110;6.050;2022-08-07T16:06:52;0.55;;;0.40;;
37411;SDS011;23278;52.110;6.050;2022-08-07T16:09:31;0.93;;;0.47;;
37411;SDS011;23278;52.110;6.050;2022-08-07T16:15:30;1.35;;;0.40;;
37411;SDS011;23278;52.110;6.050;2022-08-07T16:18:17;2.92;;;0.60;;
37411;SDS011;23278;52.110;6.050;2022-08-07T16:20:58;2.60;;;0.38;;
37411;SDS011;23278;52.110;6.050;2022-08-07T16:23:32;1.08;;;0.60;;
37411;SDS011;23278;52.110;6.050;2022-08-07T16:29:04;1.75;;;0.60;;
37411;SDS011;23278;52.110;6.050;2022-08-07T16:31:39;1.60;;;0.75;;
37411;SDS011;23278;52.110;6.050;2022-08-07T16:34:11;0.30;;;0.30;;
37411;SDS011;23278;52.110;6.050;2022-08-07T16:42:16;0.85;;;0.40;;
37411;SDS011;23278;52.110;6.050;2022-08-07T16:50:57;1.55;;;0.70;;
37411;SDS011;23278;52.110;6.050;2022-08-07T16:56:00;1.35;;;0.60;;
37411;SDS011;23278;52.110;6.050;2022-08-07T17:06:55;0.80;;;0.50;;
37411;SDS011;23278;52.110;6.050;2022-08-07T17:09:45;0.65;;;0.38;;
37411;SDS011;23278;52.110;6.050;2022-08-07T17:12:18;1.17;;;0.30;;
37411;SDS011;23278;52.110;6.050;2022-08-07T17:14:55;1.60;;;0.40;;
37411;SDS011;23278;52.110;6.050;2022-08-07T17:20:13;0.80;;;0.40;;
37411;SDS011;23278;52.110;6.050;2022-08-07T17:22:51;1.08;;;0.40;;
37411;SDS011;23278;52.110;6.050;2022-08-07T17:25:25;1.60;;;0.40;;
37411;SDS011;23278;52.110;6.050;2022-08-07T17:28:14;1.02;;;0.30;;
37411;SDS011;23278;52.110;6.050;2022-08-07T17:30:46;1.50;;;0.40;;
37411;SDS011;23278;52.110;6.050;2022-08-07T17:33:32;0.77;;;0.70;;
37411;SDS011;23278;52.110;6.050;2022-08-07T17:36:11;1.40;;;0.45;;
37411;SDS011;23278;52.110;6.050;2022-08-07T17:38:48;1.33;;;0.32;;
37411;SDS011;23278;52.110;6.050;2022-08-07T17:44:16;1.67;;;0.40;;
37411;SDS011;23278;52.110;6.050;2022-08-07T17:52:26;0.73;;;0.40;;
37411;SDS011;23278;52.110;6.050;2022-08-07T17:55:14;1.05;;;0.55;;
37411;SDS011;23278;52.110;6.050;2022-08-07T17:57:50;1.50;;;0.40;;
37411;SDS011;23278;52.110;6.050;2022-08-07T18:00:19;0.88;;;0.40;;
37411;SDS011;23278;52.110;6.050;2022-08-07T18:05:35;1.02;;;0.52;;
37411;SDS011;23278;52.110;6.050;2022-08-07T18:08:26;1.15;;;0.55;;
37411;SDS011;23278;52.110;6.050;2022-08-07T18:11:06;1.25;;;0.70;;
37411;SDS011;23278;52.110;6.050;2022-08-07T18:19:08;0.70;;;0.30;;
37411;SDS011;23278;52.110;6.050;2022-08-07T18:21:48;0.65;;;0.40;;
37411;SDS011;23278;52.110;6.050;2022-08-07T18:24:26;1.40;;;0.50;;
37411;SDS011;23278;52.110;6.050;2022-08-07T18:27:13;1.08;;;0.60;;
37411;SDS011;23278;52.110;6.050;2022-08-07T18:32:20;1.30;;;0.50;;
37411;SDS011;23278;52.110;6.050;2022-08-07T18:37:43;2.78;;;0.60;;
37411;SDS011;23278;52.110;6.050;2022-08-07T18:42:59;0.82;;;0.50;;
37411;SDS011;23278;52.110;6.050;2022-08-07T18:45:32;0.93;;;0.40;;
37411;SDS011;23278;52.110;6.050;2022-08-07T18:48:21;0.73;;;0.30;;
37411;SDS011;23278;52.110;6.050;2022-08-07T18:51:02;1.15;;;0.47;;
37411;SDS011;23278;52.110;6.050;2022-08-07T18:56:47;0.60;;;0.30;;
37411;SDS011;23278;52.110;6.050;2022-08-07T19:05:01;0.60;;;0.50;;
37411;SDS011;23278;52.110;6.050;2022-08-07T19:07:58;0.85;;;0.40;;
37411;SDS011;23278;52.110;6.050;2022-08-07T19:10:45;1.13;;;0.40;;
37411;SDS011;23278;52.110;6.050;2022-08-07T19:13:18;0.65;;;0.30;;
37411;SDS011;23278;52.110;6.050;2022-08-07T19:16:13;1.83;;;0.60;;